Time,TemperatureF,DewpointF,PressureIn,WindDirection,WindDirectionDegrees,WindSpeedMPH,WindSpeedGustMPH,Humidity,HourlyPrecipIn,Conditions,Clouds,dailyrainin,SoftwareType,DateUTC
2013-08-20 00:12:00,74.8,73.0,30.04,NNE,27,0.0,1.0,94,0.00,,,0.00,weatherlink.com 1.10,2013-08-20 04:12:00,
2013-08-20 00:27:00,74.4,73.0,30.04,NNE,27,0.0,1.0,94,0.00,,,0.00,weatherlink.com 1.10,2013-08-20 04:27:00,
2013-08-20 00:42:00,74.2,72.0,30.04,NNE,27,0.0,1.0,94,0.00,,,0.00,weatherlink.com 1.10,2013-08-20 04:42:00,
2013-08-20 00:57:00,74.0,72.0,30.04,NNE,27,0.0,0.0,94,0.00,,,0.00,weatherlink.com 1.10,2013-08-20 04:57:00,
2013-08-20 01:12:00,73.9,72.0,30.04,NNE,27,0.0,0.0,94,0.00,,,0.00,weatherlink.com 1.10,2013-08-20 05:12:00,
2013-08-20 01:27:00,73.8,72.0,30.03,NNE,27,0.0,0.0,95,0.00,,,0.00,weatherlink.com 1.10,2013-08-20 05:27:00,
2013-08-20 01:42:00,73.7,72.0,30.02,NNE,27,0.0,1.0,95,0.00,,,0.00,weatherlink.com 1.10,2013-08-20 05:42:00,
2013-08-20 01:57:00,73.6,72.0,30.02,NNE,27,0.0,0.0,95,0.00,,,0.00,weatherlink.com 1.10,2013-08-20 05:57:00,
2013-08-20 02:12:00,73.5,72.0,30.02,NNE,27,0.0,0.0,95,0.00,,,0.00,weatherlink.com 1.10,2013-08-20 06:12:00,
2013-08-20 02:27:00,73.4,72.0,30.02,NNE,27,0.0,0.0,95,0.00,,,0.00,weatherlink.com 1.10,2013-08-20 06:27:00,
2013-08-20 02:42:00,73.3,72.0,30.01,NNE,27,0.0,0.0,95,0.00,,,0.00,weatherlink.com 1.10,2013-08-20 06:42:00,
2013-08-20 02:57:00,73.2,72.0,30.01,NNE,27,0.0,0.0,96,0.00,,,0.00,weatherlink.com 1.10,2013-08-20 06:57:00,
2013-08-20 03:12:00,73.0,72.0,30.01,NNE,27,0.0,0.0,96,0.00,,,0.00,weatherlink.com 1.10,2013-08-20 07:12:00,
2013-08-20 03:42:00,73.1,72.0,30.00,NNE,27,0.0,0.0,96,0.00,,,0.00,weatherlink.com 1.10,2013-08-20 07:42:00,
2013-08-20 03:57:00,73.1,72.0,30.00,NNE,27,0.0,0.0,96,0.00,,,0.00,weatherlink.com 1.10,2013-08-20 07:57:00,
2013-08-20 04:12:00,73.0,72.0,30.00,NNE,26,0.0,0.0,96,0.00,,,0.00,weatherlink.com 1.10,2013-08-20 08:12:00,
2013-08-20 04:27:00,72.8,72.0,30.00,NNE,26,0.0,0.0,96,0.00,,,0.00,weatherlink.com 1.10,2013-08-20 08:27:00,
2013-08-20 04:42:00,72.7,72.0,29.99,NNE,26,0.0,1.0,96,0.00,,,0.00,weatherlink.com 1.10,2013-08-20 08:42:00,
2013-08-20 04:57:00,72.8,72.0,29.99,NNE,26,0.0,1.0,96,0.00,,,0.00,weatherlink.com 1.10,2013-08-20 08:57:00,
2013-08-20 05:12:00,72.9,72.0,30.00,NNE,27,0.0,0.0,96,0.00,,,0.00,weatherlink.com 1.10,2013-08-20 09:12:00,
2013-08-20 05:27:00,72.8,72.0,30.00,NNE,27,0.0,0.0,96,0.00,,,0.00,weatherlink.com 1.10,2013-08-20 09:27:00,
2013-08-20 05:42:00,72.7,72.0,30.00,NNE,27,0.0,0.0,96,0.00,,,0.00,weatherlink.com 1.10,2013-08-20 09:42:00,
2013-08-20 05:57:00,72.6,71.0,30.00,NNE,27,0.0,0.0,96,0.00,,,0.00,weatherlink.com 1.10,2013-08-20 09:57:00,
2013-08-20 06:12:00,72.4,71.0,30.00,NNE,27,0.0,0.0,96,0.00,,,0.00,weatherlink.com 1.10,2013-08-20 10:12:00,
2013-08-20 06:27:00,72.2,71.0,30.00,NNE,27,0.0,0.0,96,0.00,,,0.00,weatherlink.com 1.10,2013-08-20 10:27:00,
2013-08-20 06:42:00,72.1,71.0,30.01,NNE,27,0.0,0.0,96,0.00,,,0.00,weatherlink.com 1.10,2013-08-20 10:42:00,
2013-08-20 06:57:00,72.0,71.0,30.01,NNE,27,0.0,0.0,96,0.00,,,0.00,weatherlink.com 1.10,2013-08-20 10:57:00,
2013-08-20 07:12:00,72.1,71.0,30.01,NNE,27,0.0,0.0,97,0.00,,,0.00,weatherlink.com 1.10,2013-08-20 11:12:00,
2013-08-20 07:27:00,72.1,71.0,30.01,NNE,27,0.0,0.0,97,0.00,,,0.00,weatherlink.com 1.10,2013-08-20 11:27:00,
2013-08-20 07:42:00,72.4,72.0,30.02,NNE,27,0.0,0.0,97,0.01,,,0.01,weatherlink.com 1.10,2013-08-20 11:42:00,
2013-08-20 07:57:00,73.4,73.0,30.02,NNE,27,0.0,0.0,97,0.01,,,0.01,weatherlink.com 1.10,2013-08-20 11:57:00,
2013-08-20 08:12:00,76.4,76.0,30.02,NNE,27,0.0,1.0,98,0.01,,,0.01,weatherlink.com 1.10,2013-08-20 12:12:00,
2013-08-20 08:27:00,77.9,77.0,30.02,NE,34,1.0,2.0,97,0.01,,,0.01,weatherlink.com 1.10,2013-08-20 12:27:00,
2013-08-20 08:42:00,79.4,78.0,30.02,NE,47,2.0,4.0,94,0.00,,,0.01,weatherlink.com 1.10,2013-08-20 12:42:00,
2013-08-20 08:57:00,80.6,78.0,30.03,NNE,28,3.0,3.0,91,0.00,,,0.01,weatherlink.com 1.10,2013-08-20 12:57:00,
2013-08-20 09:12:00,81.3,78.0,30.03,ENE,71,2.0,2.0,90,0.00,,,0.01,weatherlink.com 1.10,2013-08-20 13:12:00,
2013-08-20 09:27:00,81.6,78.0,30.04,SE,126,0.0,4.0,88,0.00,,,0.01,weatherlink.com 1.10,2013-08-20 13:27:00,
2013-08-20 09:42:00,82.7,78.0,30.03,SSE,154,0.0,3.0,85,0.00,,,0.01,weatherlink.com 1.10,2013-08-20 13:42:00,
2013-08-20 09:57:00,83.5,79.0,30.04,East,90,0.0,3.0,85,0.00,,,0.01,weatherlink.com 1.10,2013-08-20 13:57:00,
2013-08-20 10:13:00,83.9,78.0,30.04,SSE,165,1.0,3.0,82,0.00,,,0.01,weatherlink.com 1.10,2013-08-20 14:13:00,
2013-08-20 10:28:00,84.7,78.0,30.05,South,173,1.0,3.0,79,0.00,,,0.01,weatherlink.com 1.10,2013-08-20 14:28:00,
2013-08-20 10:43:00,85.6,78.0,30.05,NE,42,0.0,6.0,77,0.00,,,0.01,weatherlink.com 1.10,2013-08-20 14:43:00,
2013-08-20 10:58:00,86.4,77.0,30.05,South,172,0.0,2.0,74,0.00,,,0.01,weatherlink.com 1.10,2013-08-20 14:58:00,
2013-08-20 11:13:00,86.5,78.0,30.05,South,171,0.0,5.0,75,0.00,,,0.01,weatherlink.com 1.10,2013-08-20 15:13:00,
2013-08-20 11:28:00,86.8,78.0,30.05,South,180,1.0,3.0,75,0.00,,,0.01,weatherlink.com 1.10,2013-08-20 15:28:00,
2013-08-20 11:43:00,87.9,79.0,30.05,NE,52,0.0,6.0,74,0.00,,,0.01,weatherlink.com 1.10,2013-08-20 15:43:00,
2013-08-20 11:58:00,87.5,77.0,30.05,SSE,151,1.0,4.0,72,0.00,,,0.01,weatherlink.com 1.10,2013-08-20 15:58:00,
2013-08-20 12:12:00,87.7,77.0,30.05,South,191,0.0,2.0,70,0.00,,,0.01,weatherlink.com 1.10,2013-08-20 16:12:00,
2013-08-20 12:43:00,89.1,76.0,30.05,South,173,1.0,6.0,66,0.00,,,0.01,weatherlink.com 1.10,2013-08-20 16:43:00,
2013-08-20 12:58:00,88.9,78.0,30.05,NE,46,1.0,3.0,71,0.00,,,0.01,weatherlink.com 1.10,2013-08-20 16:58:00,
2013-08-20 13:13:00,89.4,78.0,30.05,NE,54,0.0,4.0,70,0.00,,,0.01,weatherlink.com 1.10,2013-08-20 17:13:00,
2013-08-20 13:28:00,88.6,76.0,30.04,SE,131,0.0,6.0,67,0.00,,,0.01,weatherlink.com 1.10,2013-08-20 17:28:00,
2013-08-20 13:43:00,89.9,76.0,30.04,ENE,60,0.0,7.0,64,0.00,,,0.01,weatherlink.com 1.10,2013-08-20 17:43:00,
2013-08-20 13:58:00,89.3,76.0,30.03,NE,56,0.0,8.0,64,0.00,,,0.01,weatherlink.com 1.10,2013-08-20 17:58:00,
2013-08-20 14:28:00,91.4,78.0,30.02,ENE,65,2.0,8.0,65,0.00,,,0.01,weatherlink.com 1.10,2013-08-20 18:28:00,
2013-08-20 14:43:00,91.8,75.0,30.01,NE,50,1.0,5.0,58,0.00,,,0.01,weatherlink.com 1.10,2013-08-20 18:43:00,
2013-08-20 14:58:00,90.4,74.0,30.00,South,183,0.0,2.0,58,0.00,,,0.01,weatherlink.com 1.10,2013-08-20 18:58:00,
2013-08-20 15:13:00,91.5,77.0,30.00,SSE,161,0.0,4.0,63,0.00,,,0.01,weatherlink.com 1.10,2013-08-20 19:13:00,
2013-08-20 15:28:00,92.1,76.0,29.99,SSE,161,0.0,3.0,59,0.00,,,0.01,weatherlink.com 1.10,2013-08-20 19:28:00,
2013-08-20 15:43:00,90.0,76.0,29.98,NE,53,1.0,4.0,63,0.00,,,0.01,weatherlink.com 1.10,2013-08-20 19:43:00,
2013-08-20 15:58:00,86.4,76.0,29.99,SSW,197,1.0,6.0,70,0.00,,,0.01,weatherlink.com 1.10,2013-08-20 19:58:00,
2013-08-20 16:13:00,81.8,74.0,29.98,SSW,207,6.0,6.0,77,0.00,,,0.01,weatherlink.com 1.10,2013-08-20 20:13:00,
2013-08-20 16:28:00,81.4,74.0,30.00,SSW,200,0.0,3.0,77,0.00,,,0.01,weatherlink.com 1.10,2013-08-20 20:28:00,
2013-08-20 16:43:00,81.5,75.0,30.01,NNE,25,2.0,6.0,80,0.00,,,0.01,weatherlink.com 1.10,2013-08-20 20:43:00,
2013-08-20 16:58:00,79.6,75.0,30.00,WNW,298,0.0,5.0,86,0.00,,,0.01,weatherlink.com 1.10,2013-08-20 20:58:00,
2013-08-20 17:13:00,79.5,76.0,29.99,WNW,301,1.0,3.0,89,0.00,,,0.01,weatherlink.com 1.10,2013-08-20 21:13:00,
2013-08-20 17:28:00,80.0,77.0,30.01,NE,38,3.0,5.0,89,0.00,,,0.01,weatherlink.com 1.10,2013-08-20 21:28:00,
2013-08-20 17:43:00,79.8,76.0,30.00,North,5,0.0,4.0,89,0.00,,,0.01,weatherlink.com 1.10,2013-08-20 21:43:00,
2013-08-20 17:58:00,80.2,77.0,29.99,WNW,286,0.0,3.0,89,0.00,,,0.01,weatherlink.com 1.10,2013-08-20 21:58:00,
2013-08-20 18:13:00,80.1,76.0,29.99,NNE,17,1.0,3.0,87,0.00,,,0.01,weatherlink.com 1.10,2013-08-20 22:13:00,
2013-08-20 18:28:00,79.4,76.0,29.99,North,5,0.0,3.0,88,0.00,,,0.01,weatherlink.com 1.10,2013-08-20 22:28:00,
2013-08-20 18:43:00,79.5,76.0,30.00,North,5,1.0,3.0,89,0.00,,,0.01,weatherlink.com 1.10,2013-08-20 22:43:00,
2013-08-20 18:58:00,79.7,76.0,30.00,WSW,237,0.0,7.0,87,0.00,,,0.01,weatherlink.com 1.10,2013-08-20 22:58:00,
2013-08-20 19:13:00,79.9,76.0,30.00,WSW,237,0.0,0.0,87,0.00,,,0.01,weatherlink.com 1.10,2013-08-20 23:13:00,
2013-08-20 19:28:00,80.1,76.0,30.01,WSW,237,0.0,1.0,87,0.00,,,0.01,weatherlink.com 1.10,2013-08-20 23:28:00,
2013-08-20 19:43:00,80.1,76.0,30.01,WSW,237,2.0,2.0,87,0.00,,,0.01,weatherlink.com 1.10,2013-08-20 23:43:00,
2013-08-20 19:58:00,80.1,76.0,30.02,WSW,237,0.0,1.0,88,0.00,,,0.01,weatherlink.com 1.10,2013-08-20 23:58:00,
2013-08-20 20:13:00,79.9,76.0,30.02,WSW,237,0.0,1.0,88,0.00,,,0.01,weatherlink.com 1.10,2013-08-21 00:13:00,
2013-08-20 20:28:00,79.6,76.0,30.03,WSW,237,0.0,1.0,88,0.00,,,0.01,weatherlink.com 1.10,2013-08-21 00:28:00,
2013-08-20 20:43:00,79.3,76.0,30.04,WSW,237,0.0,0.0,89,0.00,,,0.01,weatherlink.com 1.10,2013-08-21 00:43:00,
2013-08-20 20:58:00,79.0,76.0,30.04,WSW,237,0.0,0.0,89,0.00,,,0.01,weatherlink.com 1.10,2013-08-21 00:58:00,
2013-08-20 21:13:00,78.7,75.0,30.05,WSW,237,0.0,0.0,89,0.00,,,0.01,weatherlink.com 1.10,2013-08-21 01:13:00,
2013-08-20 21:28:00,78.4,75.0,30.05,WSW,237,0.0,0.0,90,0.00,,,0.01,weatherlink.com 1.10,2013-08-21 01:28:00,
2013-08-20 21:43:00,78.1,75.0,30.06,WSW,237,0.0,0.0,90,0.00,,,0.01,weatherlink.com 1.10,2013-08-21 01:43:00,
2013-08-20 21:58:00,78.0,75.0,30.06,WSW,237,0.0,0.0,91,0.00,,,0.01,weatherlink.com 1.10,2013-08-21 01:58:00,
2013-08-20 22:13:00,77.8,75.0,30.07,WSW,237,0.0,0.0,92,0.00,,,0.01,weatherlink.com 1.10,2013-08-21 02:13:00,
2013-08-20 22:29:00,77.6,75.0,30.07,WSW,237,0.0,0.0,92,0.00,,,0.01,weatherlink.com 1.10,2013-08-21 02:29:00,
2013-08-20 22:44:00,77.3,75.0,30.07,WSW,237,0.0,0.0,92,0.00,,,0.01,weatherlink.com 1.10,2013-08-21 02:44:00,
2013-08-20 22:59:00,77.0,75.0,30.08,WSW,237,0.0,0.0,92,0.00,,,0.01,weatherlink.com 1.10,2013-08-21 02:59:00,
2013-08-20 23:14:00,76.7,75.0,30.07,WSW,237,0.0,1.0,93,0.00,,,0.01,weatherlink.com 1.10,2013-08-21 03:14:00,
2013-08-20 23:29:00,76.9,75.0,30.07,WSW,237,0.0,2.0,94,0.00,,,0.01,weatherlink.com 1.10,2013-08-21 03:29:00,
2013-08-20 23:44:00,77.1,75.0,30.07,WSW,237,0.0,1.0,94,0.00,,,0.01,weatherlink.com 1.10,2013-08-21 03:44:00,
2013-08-20 23:59:00,77.2,75.0,30.07,NW,308,0.0,1.0,94,0.00,,,0.01,weatherlink.com 1.10,2013-08-21 03:59:00,